Kezdőlap
METAR-TAF:

METAR-TAF

Repülőterek :

Ankeny Regional Airport

Ankeny, Iowa, Amerikai Egyesült Államok

földrajzi szélesség: 41-41-24N, földrajzi hosszúság: 093-33-57W, magasság: 275 m

Jelenlegi meteorológiai megfigyelések

A jelentés 24 perccel ezelõtt készült, 04:55 UTC
Szélcsend
Hőmérséklet 4°C
Páratartalom 87%
Légköri nyomás 1004 hPa
Látótávolság: 16.1 km
Borult 2500 lábon

METAR: KIKV 090455Z AUTO 00000KT 10SM OVC025 04/02 A2966 RMK AO2

Idő: 23:19 (05:19 UTC)


TAF: hiányzik

Meteorológiai megfigyelések és előrejelzések több, mint 4000 repülőtéren (METAR és TAF jelentéseket).

A térképen piros és sárga pontok jelzik az elérhető meteorológiai állomásokat.

Mozgassa az egeret a pont fölött, hogy megjelenjen az állomás neve.

Azután kattintson az időjárási megfigyelések és előrejelzések megtekintéséhez.

A térkép megváltoztatása: kattintson a fekete keresztel jelölt zöld gombra ráközelítéshez, a vonallal jelölt zöld gombra távolításhoz, vagy a zöld nyilakra a szomszédos térképek eléréséhez.


METAR-TAF: